METAR Data
IDs: Format: Raw Decoded Include TAF

Data at: 1041 UTC 18 Jan 2022

METAR for:KMOP (Mount Pleasant Muni, MI, US)
Text:KMOP 181035Z AUTO 23004KT 10SM OVC029 M03/M06 A2989 RMK AO2 T10291062
Temperature: -2.9°C ( 27°F)
Dewpoint: -6.2°C ( 21°F) [RH = 78%]
Pressure (altimeter):29.89 inches Hg (1012.3 mb)
Winds:from the SW (230 degrees) at 5 MPH (4 knots; 2.1 m/s)
Visibility:10 or more sm (16+ km)
Ceiling:2900 feet AGL
Clouds: overcast cloud deck at 2900 feet AGL
QC Flag:automated observation with no human augmentation